sensor_id;sensor_type;location;lat;lon;timestamp;P1;durP1;ratioP1;P2;durP2;ratioP2
68140;SDS011;54941;52.220;104.306;2022-11-20T00:00:45;22.17;;;8.38;;
68140;SDS011;54941;52.220;104.306;2022-11-20T00:03:12;27.73;;;9.50;;
68140;SDS011;54941;52.220;104.306;2022-11-20T00:05:40;17.52;;;7.80;;
68140;SDS011;54941;52.220;104.306;2022-11-20T00:08:06;24.02;;;8.50;;
68140;SDS011;54941;52.220;104.306;2022-11-20T00:10:35;21.60;;;8.25;;
68140;SDS011;54941;52.220;104.306;2022-11-20T00:13:02;22.48;;;9.55;;
68140;SDS011;54941;52.220;104.306;2022-11-20T00:15:29;21.15;;;9.55;;
68140;SDS011;54941;52.220;104.306;2022-11-20T00:17:55;24.67;;;10.65;;
68140;SDS011;54941;52.220;104.306;2022-11-20T00:20:21;20.90;;;9.20;;
68140;SDS011;54941;52.220;104.306;2022-11-20T00:22:50;29.45;;;10.13;;
68140;SDS011;54941;52.220;104.306;2022-11-20T00:25:16;21.95;;;9.77;;
68140;SDS011;54941;52.220;104.306;2022-11-20T00:27:43;24.50;;;10.40;;
68140;SDS011;54941;52.220;104.306;2022-11-20T00:30:09;27.10;;;10.52;;
68140;SDS011;54941;52.220;104.306;2022-11-20T00:32:36;24.60;;;10.98;;
68140;SDS011;54941;52.220;104.306;2022-11-20T00:35:03;27.25;;;11.30;;
68140;SDS011;54941;52.220;104.306;2022-11-20T00:37:29;30.83;;;11.43;;
68140;SDS011;54941;52.220;104.306;2022-11-20T00:39:57;28.23;;;10.80;;
68140;SDS011;54941;52.220;104.306;2022-11-20T00:42:24;24.70;;;11.30;;
68140;SDS011;54941;52.220;104.306;2022-11-20T00:44:50;29.70;;;11.93;;
68140;SDS011;54941;52.220;104.306;2022-11-20T00:47:17;32.05;;;12.40;;
68140;SDS011;54941;52.220;104.306;2022-11-20T00:49:43;33.85;;;13.13;;
68140;SDS011;54941;52.220;104.306;2022-11-20T00:52:10;36.25;;;14.95;;
68140;SDS011;54941;52.220;104.306;2022-11-20T00:54:36;33.72;;;13.95;;
68140;SDS011;54941;52.220;104.306;2022-11-20T00:57:04;32.45;;;13.07;;
68140;SDS011;54941;52.220;104.306;2022-11-20T00:59:30;35.95;;;14.45;;
68140;SDS011;54941;52.220;104.306;2022-11-20T01:01:57;33.63;;;15.18;;
68140;SDS011;54941;52.220;104.306;2022-11-20T01:04:23;33.33;;;14.50;;
68140;SDS011;54941;52.220;104.306;2022-11-20T01:06:50;39.83;;;17.05;;
68140;SDS011;54941;52.220;104.306;2022-11-20T01:09:16;38.80;;;15.48;;
68140;SDS011;54941;52.220;104.306;2022-11-20T01:11:43;36.50;;;15.85;;
68140;SDS011;54941;52.220;104.306;2022-11-20T01:14:13;41.92;;;16.77;;
68140;SDS011;54941;52.220;104.306;2022-11-20T01:16:41;42.78;;;17.80;;
68140;SDS011;54941;52.220;104.306;2022-11-20T01:19:10;41.42;;;17.50;;
68140;SDS011;54941;52.220;104.306;2022-11-20T01:21:38;39.05;;;15.43;;
68140;SDS011;54941;52.220;104.306;2022-11-20T01:24:06;43.13;;;17.30;;
68140;SDS011;54941;52.220;104.306;2022-11-20T01:26:36;35.55;;;16.15;;
68140;SDS011;54941;52.220;104.306;2022-11-20T01:29:04;62.97;;;26.27;;
68140;SDS011;54941;52.220;104.306;2022-11-20T01:31:33;56.92;;;22.23;;
68140;SDS011;54941;52.220;104.306;2022-11-20T01:34:01;61.28;;;22.75;;
68140;SDS011;54941;52.220;104.306;2022-11-20T01:36:29;46.83;;;17.80;;
68140;SDS011;54941;52.220;104.306;2022-11-20T01:38:57;45.50;;;16.63;;
68140;SDS011;54941;52.220;104.306;2022-11-20T01:41:25;43.95;;;17.48;;
68140;SDS011;54941;52.220;104.306;2022-11-20T01:43:53;44.28;;;18.70;;
68140;SDS011;54941;52.220;104.306;2022-11-20T01:46:19;33.47;;;14.85;;
68140;SDS011;54941;52.220;104.306;2022-11-20T01:48:49;41.90;;;15.45;;
68140;SDS011;54941;52.220;104.306;2022-11-20T01:51:21;41.15;;;16.52;;
68140;SDS011;54941;52.220;104.306;2022-11-20T01:53:52;39.63;;;16.65;;
68140;SDS011;54941;52.220;104.306;2022-11-20T01:56:23;41.78;;;17.05;;
68140;SDS011;54941;52.220;104.306;2022-11-20T01:58:51;46.92;;;18.05;;
68140;SDS011;54941;52.220;104.306;2022-11-20T02:01:22;47.15;;;20.00;;
68140;SDS011;54941;52.220;104.306;2022-11-20T02:03:50;42.80;;;17.23;;
68140;SDS011;54941;52.220;104.306;2022-11-20T02:06:19;43.35;;;16.90;;
68140;SDS011;54941;52.220;104.306;2022-11-20T02:08:49;38.00;;;15.68;;
68140;SDS011;54941;52.220;104.306;2022-11-20T02:11:17;34.17;;;14.18;;
68140;SDS011;54941;52.220;104.306;2022-11-20T02:13:44;35.05;;;13.60;;
68140;SDS011;54941;52.220;104.306;2022-11-20T02:16:12;36.00;;;15.05;;
68140;SDS011;54941;52.220;104.306;2022-11-20T02:18:41;35.85;;;15.68;;
68140;SDS011;54941;52.220;104.306;2022-11-20T02:21:14;38.17;;;15.70;;
68140;SDS011;54941;52.220;104.306;2022-11-20T02:24:01;41.03;;;15.23;;
68140;SDS011;54941;52.220;104.306;2022-11-20T02:26:30;41.33;;;17.60;;
68140;SDS011;54941;52.220;104.306;2022-11-20T02:28:59;43.85;;;16.73;;
68140;SDS011;54941;52.220;104.306;2022-11-20T02:31:27;36.65;;;15.20;;
68140;SDS011;54941;52.220;104.306;2022-11-20T02:33:55;34.38;;;14.85;;
68140;SDS011;54941;52.220;104.306;2022-11-20T02:36:22;34.40;;;13.90;;
68140;SDS011;54941;52.220;104.306;2022-11-20T02:38:51;39.80;;;16.55;;
68140;SDS011;54941;52.220;104.306;2022-11-20T02:41:20;35.72;;;13.98;;
68140;SDS011;54941;52.220;104.306;2022-11-20T02:43:46;39.20;;;15.95;;
68140;SDS011;54941;52.220;104.306;2022-11-20T02:46:12;41.22;;;17.70;;
68140;SDS011;54941;52.220;104.306;2022-11-20T02:48:39;37.03;;;16.55;;
68140;SDS011;54941;52.220;104.306;2022-11-20T02:51:05;27.40;;;12.00;;
68140;SDS011;54941;52.220;104.306;2022-11-20T02:53:32;31.98;;;14.77;;
68140;SDS011;54941;52.220;104.306;2022-11-20T02:55:58;37.65;;;15.07;;
68140;SDS011;54941;52.220;104.306;2022-11-20T02:58:26;26.42;;;12.48;;
68140;SDS011;54941;52.220;104.306;2022-11-20T03:00:52;31.90;;;14.05;;
68140;SDS011;54941;52.220;104.306;2022-11-20T03:03:19;27.42;;;11.43;;
68140;SDS011;54941;52.220;104.306;2022-11-20T03:05:45;26.73;;;11.10;;
68140;SDS011;54941;52.220;104.306;2022-11-20T03:08:12;32.35;;;14.10;;
68140;SDS011;54941;52.220;104.306;2022-11-20T03:10:38;28.55;;;13.02;;
68140;SDS011;54941;52.220;104.306;2022-11-20T03:13:05;35.10;;;15.02;;
68140;SDS011;54941;52.220;104.306;2022-11-20T03:15:33;27.05;;;12.73;;
68140;SDS011;54941;52.220;104.306;2022-11-20T03:18:01;31.75;;;14.23;;
68140;SDS011;54941;52.220;104.306;2022-11-20T03:20:27;31.48;;;13.38;;
68140;SDS011;54941;52.220;104.306;2022-11-20T03:22:54;35.30;;;14.05;;
68140;SDS011;54941;52.220;104.306;2022-11-20T03:25:20;34.42;;;14.73;;
68140;SDS011;54941;52.220;104.306;2022-11-20T03:27:47;35.72;;;15.95;;
68140;SDS011;54941;52.220;104.306;2022-11-20T03:30:14;32.25;;;14.70;;
68140;SDS011;54941;52.220;104.306;2022-11-20T03:32:42;25.98;;;11.35;;
68140;SDS011;54941;52.220;104.306;2022-11-20T03:35:09;35.10;;;16.20;;
68140;SDS011;54941;52.220;104.306;2022-11-20T03:37:35;34.58;;;16.15;;
68140;SDS011;54941;52.220;104.306;2022-11-20T03:40:02;33.63;;;16.60;;
68140;SDS011;54941;52.220;104.306;2022-11-20T03:42:29;32.28;;;14.77;;
68140;SDS011;54941;52.220;104.306;2022-11-20T03:44:56;39.72;;;16.65;;
68140;SDS011;54941;52.220;104.306;2022-11-20T03:47:22;39.30;;;17.23;;
68140;SDS011;54941;52.220;104.306;2022-11-20T03:49:50;37.13;;;17.58;;
68140;SDS011;54941;52.220;104.306;2022-11-20T03:52:16;35.92;;;17.85;;
68140;SDS011;54941;52.220;104.306;2022-11-20T03:54:43;35.65;;;16.40;;
68140;SDS011;54941;52.220;104.306;2022-11-20T03:57:09;38.00;;;16.98;;
68140;SDS011;54941;52.220;104.306;2022-11-20T03:59:36;35.97;;;16.05;;
68140;SDS011;54941;52.220;104.306;2022-11-20T04:02:02;37.33;;;16.75;;
68140;SDS011;54941;52.220;104.306;2022-11-20T04:04:29;39.42;;;17.58;;
68140;SDS011;54941;52.220;104.306;2022-11-20T04:06:57;37.00;;;15.63;;
68140;SDS011;54941;52.220;104.306;2022-11-20T04:09:23;29.77;;;13.23;;
68140;SDS011;54941;52.220;104.306;2022-11-20T04:11:50;34.33;;;16.17;;
68140;SDS011;54941;52.220;104.306;2022-11-20T04:14:16;39.85;;;15.82;;
68140;SDS011;54941;52.220;104.306;2022-11-20T04:16:43;32.15;;;14.32;;
68140;SDS011;54941;52.220;104.306;2022-11-20T04:19:10;29.20;;;13.40;;
68140;SDS011;54941;52.220;104.306;2022-11-20T04:21:37;21.88;;;9.52;;
68140;SDS011;54941;52.220;104.306;2022-11-20T04:24:06;28.02;;;11.75;;
68140;SDS011;54941;52.220;104.306;2022-11-20T04:26:33;22.05;;;10.43;;
68140;SDS011;54941;52.220;104.306;2022-11-20T04:29:00;29.23;;;12.75;;
68140;SDS011;54941;52.220;104.306;2022-11-20T04:31:27;33.03;;;14.52;;
68140;SDS011;54941;52.220;104.306;2022-11-20T04:33:54;23.63;;;10.40;;
68140;SDS011;54941;52.220;104.306;2022-11-20T04:36:22;27.50;;;12.60;;
68140;SDS011;54941;52.220;104.306;2022-11-20T04:38:50;29.55;;;12.73;;
68140;SDS011;54941;52.220;104.306;2022-11-20T04:41:18;23.45;;;10.57;;
68140;SDS011;54941;52.220;104.306;2022-11-20T04:43:46;23.00;;;10.32;;
68140;SDS011;54941;52.220;104.306;2022-11-20T04:46:13;22.10;;;9.93;;
68140;SDS011;54941;52.220;104.306;2022-11-20T04:48:39;26.92;;;11.90;;
68140;SDS011;54941;52.220;104.306;2022-11-20T04:51:06;24.75;;;10.68;;
68140;SDS011;54941;52.220;104.306;2022-11-20T04:53:32;23.48;;;10.50;;
68140;SDS011;54941;52.220;104.306;2022-11-20T04:55:59;24.00;;;9.65;;
68140;SDS011;54941;52.220;104.306;2022-11-20T04:58:27;19.98;;;8.77;;
68140;SDS011;54941;52.220;104.306;2022-11-20T05:01:00;27.42;;;11.27;;
68140;SDS011;54941;52.220;104.306;2022-11-20T05:03:27;20.75;;;9.38;;
68140;SDS011;54941;52.220;104.306;2022-11-20T05:05:54;27.55;;;11.68;;
68140;SDS011;54941;52.220;104.306;2022-11-20T05:08:20;28.67;;;12.32;;
68140;SDS011;54941;52.220;104.306;2022-11-20T05:10:47;25.45;;;10.93;;
68140;SDS011;54941;52.220;104.306;2022-11-20T05:13:13;23.88;;;9.90;;
68140;SDS011;54941;52.220;104.306;2022-11-20T05:15:41;24.20;;;10.98;;
68140;SDS011;54941;52.220;104.306;2022-11-20T05:18:08;30.50;;;11.70;;
68140;SDS011;54941;52.220;104.306;2022-11-20T05:20:34;31.30;;;11.77;;
68140;SDS011;54941;52.220;104.306;2022-11-20T05:23:00;31.48;;;13.52;;
68140;SDS011;54941;52.220;104.306;2022-11-20T05:25:27;29.05;;;12.07;;
68140;SDS011;54941;52.220;104.306;2022-11-20T05:27:54;24.95;;;9.98;;
68140;SDS011;54941;52.220;104.306;2022-11-20T05:30:20;27.25;;;11.32;;
68140;SDS011;54941;52.220;104.306;2022-11-20T05:32:48;22.30;;;11.05;;
68140;SDS011;54941;52.220;104.306;2022-11-20T05:35:14;25.73;;;10.82;;
68140;SDS011;54941;52.220;104.306;2022-11-20T05:37:41;21.55;;;9.50;;
68140;SDS011;54941;52.220;104.306;2022-11-20T05:40:08;28.73;;;12.00;;
68140;SDS011;54941;52.220;104.306;2022-11-20T05:42:35;25.38;;;11.27;;
68140;SDS011;54941;52.220;104.306;2022-11-20T05:45:02;25.90;;;10.45;;
68140;SDS011;54941;52.220;104.306;2022-11-20T05:47:31;18.80;;;8.85;;
68140;SDS011;54941;52.220;104.306;2022-11-20T05:50:00;21.33;;;8.25;;
68140;SDS011;54941;52.220;104.306;2022-11-20T05:52:29;17.45;;;8.13;;
68140;SDS011;54941;52.220;104.306;2022-11-20T05:54:56;22.95;;;9.40;;
68140;SDS011;54941;52.220;104.306;2022-11-20T05:57:23;15.88;;;7.78;;
68140;SDS011;54941;52.220;104.306;2022-11-20T05:59:49;18.00;;;8.80;;
68140;SDS011;54941;52.220;104.306;2022-11-20T06:02:16;17.88;;;7.60;;
68140;SDS011;54941;52.220;104.306;2022-11-20T06:04:42;19.70;;;7.93;;
68140;SDS011;54941;52.220;104.306;2022-11-20T06:07:10;19.42;;;8.02;;
68140;SDS011;54941;52.220;104.306;2022-11-20T06:09:36;19.38;;;8.95;;
68140;SDS011;54941;52.220;104.306;2022-11-20T06:12:03;17.40;;;7.85;;
68140;SDS011;54941;52.220;104.306;2022-11-20T06:14:30;16.48;;;7.65;;
68140;SDS011;54941;52.220;104.306;2022-11-20T06:16:57;18.67;;;7.53;;
68140;SDS011;54941;52.220;104.306;2022-11-20T06:19:23;18.90;;;8.10;;
68140;SDS011;54941;52.220;104.306;2022-11-20T06:21:50;14.95;;;7.18;;
68140;SDS011;54941;52.220;104.306;2022-11-20T06:24:18;16.30;;;7.53;;
68140;SDS011;54941;52.220;104.306;2022-11-20T06:26:44;14.10;;;6.85;;
68140;SDS011;54941;52.220;104.306;2022-11-20T06:29:11;15.90;;;7.15;;
68140;SDS011;54941;52.220;104.306;2022-11-20T06:31:37;16.63;;;6.80;;
68140;SDS011;54941;52.220;104.306;2022-11-20T06:34:04;17.13;;;7.10;;
68140;SDS011;54941;52.220;104.306;2022-11-20T06:36:31;19.45;;;7.32;;
68140;SDS011;54941;52.220;104.306;2022-11-20T06:38:57;11.75;;;5.68;;
68140;SDS011;54941;52.220;104.306;2022-11-20T06:41:26;15.35;;;6.38;;
68140;SDS011;54941;52.220;104.306;2022-11-20T06:43:52;13.50;;;5.15;;
68140;SDS011;54941;52.220;104.306;2022-11-20T06:46:19;16.85;;;6.18;;
68140;SDS011;54941;52.220;104.306;2022-11-20T06:48:46;11.27;;;5.60;;
68140;SDS011;54941;52.220;104.306;2022-11-20T06:51:13;11.07;;;5.50;;
68140;SDS011;54941;52.220;104.306;2022-11-20T06:53:42;13.35;;;5.32;;
68140;SDS011;54941;52.220;104.306;2022-11-20T06:56:09;11.50;;;5.43;;
68140;SDS011;54941;52.220;104.306;2022-11-20T06:58:37;9.70;;;4.28;;
68140;SDS011;54941;52.220;104.306;2022-11-20T07:01:03;11.93;;;4.50;;
68140;SDS011;54941;52.220;104.306;2022-11-20T07:03:32;8.52;;;3.72;;
68140;SDS011;54941;52.220;104.306;2022-11-20T07:05:59;7.28;;;3.75;;
68140;SDS011;54941;52.220;104.306;2022-11-20T07:08:26;7.30;;;2.95;;
68140;SDS011;54941;52.220;104.306;2022-11-20T07:10:56;6.85;;;3.40;;
68140;SDS011;54941;52.220;104.306;2022-11-20T07:13:23;6.47;;;3.95;;
68140;SDS011;54941;52.220;104.306;2022-11-20T07:15:51;7.55;;;3.53;;
68140;SDS011;54941;52.220;104.306;2022-11-20T07:18:18;5.47;;;2.78;;
68140;SDS011;54941;52.220;104.306;2022-11-20T07:20:44;6.15;;;3.05;;
68140;SDS011;54941;52.220;104.306;2022-11-20T07:23:10;6.10;;;2.97;;
68140;SDS011;54941;52.220;104.306;2022-11-20T07:25:37;6.00;;;2.85;;
68140;SDS011;54941;52.220;104.306;2022-11-20T07:28:03;9.15;;;3.53;;
68140;SDS011;54941;52.220;104.306;2022-11-20T07:30:30;7.65;;;3.67;;
68140;SDS011;54941;52.220;104.306;2022-11-20T07:32:58;7.38;;;3.72;;
68140;SDS011;54941;52.220;104.306;2022-11-20T07:35:24;10.65;;;3.85;;
68140;SDS011;54941;52.220;104.306;2022-11-20T07:37:51;5.30;;;2.05;;
68140;SDS011;54941;52.220;104.306;2022-11-20T07:40:18;4.70;;;2.30;;
68140;SDS011;54941;52.220;104.306;2022-11-20T07:42:48;5.05;;;2.20;;
68140;SDS011;54941;52.220;104.306;2022-11-20T07:45:14;6.03;;;2.25;;
68140;SDS011;54941;52.220;104.306;2022-11-20T07:47:41;4.75;;;2.38;;
68140;SDS011;54941;52.220;104.306;2022-11-20T07:50:09;5.47;;;2.42;;
68140;SDS011;54941;52.220;104.306;2022-11-20T07:52:36;6.70;;;2.55;;
68140;SDS011;54941;52.220;104.306;2022-11-20T07:55:02;6.45;;;2.60;;
68140;SDS011;54941;52.220;104.306;2022-11-20T07:57:29;3.78;;;1.95;;
68140;SDS011;54941;52.220;104.306;2022-11-20T07:59:56;5.97;;;1.92;;
68140;SDS011;54941;52.220;104.306;2022-11-20T08:02:22;4.40;;;2.15;;
68140;SDS011;54941;52.220;104.306;2022-11-20T08:04:48;5.75;;;2.35;;
68140;SDS011;54941;52.220;104.306;2022-11-20T08:07:16;5.45;;;2.13;;
68140;SDS011;54941;52.220;104.306;2022-11-20T08:09:43;11.80;;;4.30;;
68140;SDS011;54941;52.220;104.306;2022-11-20T08:12:10;6.15;;;2.70;;
68140;SDS011;54941;52.220;104.306;2022-11-20T08:14:43;9.30;;;4.30;;
68140;SDS011;54941;52.220;104.306;2022-11-20T08:17:10;8.65;;;4.82;;
68140;SDS011;54941;52.220;104.306;2022-11-20T08:19:36;4.55;;;2.67;;
68140;SDS011;54941;52.220;104.306;2022-11-20T08:22:02;4.47;;;2.22;;
68140;SDS011;54941;52.220;104.306;2022-11-20T08:24:30;5.10;;;2.97;;
68140;SDS011;54941;52.220;104.306;2022-11-20T08:26:57;4.45;;;2.33;;
68140;SDS011;54941;52.220;104.306;2022-11-20T08:29:23;4.82;;;2.22;;
68140;SDS011;54941;52.220;104.306;2022-11-20T08:31:50;4.13;;;2.00;;
68140;SDS011;54941;52.220;104.306;2022-11-20T08:34:16;5.45;;;2.60;;
68140;SDS011;54941;52.220;104.306;2022-11-20T08:36:43;7.22;;;3.38;;
68140;SDS011;54941;52.220;104.306;2022-11-20T08:39:10;7.35;;;3.80;;
68140;SDS011;54941;52.220;104.306;2022-11-20T08:41:39;6.88;;;3.13;;
68140;SDS011;54941;52.220;104.306;2022-11-20T08:44:06;9.93;;;4.40;;
68140;SDS011;54941;52.220;104.306;2022-11-20T08:46:34;7.68;;;3.88;;
68140;SDS011;54941;52.220;104.306;2022-11-20T08:49:02;7.40;;;3.85;;
68140;SDS011;54941;52.220;104.306;2022-11-20T08:51:28;10.98;;;5.22;;
68140;SDS011;54941;52.220;104.306;2022-11-20T08:53:55;17.38;;;7.57;;
68140;SDS011;54941;52.220;104.306;2022-11-20T08:56:22;10.35;;;5.70;;
68140;SDS011;54941;52.220;104.306;2022-11-20T08:58:51;14.85;;;6.32;;
68140;SDS011;54941;52.220;104.306;2022-11-20T09:01:17;6.47;;;3.40;;
68140;SDS011;54941;52.220;104.306;2022-11-20T09:03:44;7.13;;;3.55;;
68140;SDS011;54941;52.220;104.306;2022-11-20T09:06:11;9.32;;;4.22;;
68140;SDS011;54941;52.220;104.306;2022-11-20T09:08:38;7.63;;;3.90;;
68140;SDS011;54941;52.220;104.306;2022-11-20T09:11:04;8.70;;;4.00;;
68140;SDS011;54941;52.220;104.306;2022-11-20T09:13:31;9.98;;;3.78;;
68140;SDS011;54941;52.220;104.306;2022-11-20T09:16:01;7.72;;;3.72;;
68140;SDS011;54941;52.220;104.306;2022-11-20T09:18:28;8.65;;;3.97;;
68140;SDS011;54941;52.220;104.306;2022-11-20T09:20:56;7.07;;;3.58;;
68140;SDS011;54941;52.220;104.306;2022-11-20T09:23:23;8.68;;;4.00;;
68140;SDS011;54941;52.220;104.306;2022-11-20T09:25:50;9.05;;;4.00;;
68140;SDS011;54941;52.220;104.306;2022-11-20T09:28:16;33.03;;;13.93;;
68140;SDS011;54941;52.220;104.306;2022-11-20T09:30:42;16.80;;;7.32;;
68140;SDS011;54941;52.220;104.306;2022-11-20T09:33:10;9.10;;;3.97;;
68140;SDS011;54941;52.220;104.306;2022-11-20T09:35:37;12.60;;;5.55;;
68140;SDS011;54941;52.220;104.306;2022-11-20T09:38:07;9.57;;;4.25;;
68140;SDS011;54941;52.220;104.306;2022-11-20T09:43:01;8.15;;;4.28;;
68140;SDS011;54941;52.220;104.306;2022-11-20T09:45:37;10.68;;;4.47;;
68140;SDS011;54941;52.220;104.306;2022-11-20T09:48:18;11.07;;;4.20;;
68140;SDS011;54941;52.220;104.306;2022-11-20T09:50:56;12.10;;;5.10;;
68140;SDS011;54941;52.220;104.306;2022-11-20T09:53:30;19.15;;;6.85;;
68140;SDS011;54941;52.220;104.306;2022-11-20T09:56:06;16.73;;;6.75;;
68140;SDS011;54941;52.220;104.306;2022-11-20T09:58:38;15.25;;;6.25;;
68140;SDS011;54941;52.220;104.306;2022-11-20T10:01:09;13.57;;;6.32;;
68140;SDS011;54941;52.220;104.306;2022-11-20T10:03:39;21.42;;;8.35;;
68140;SDS011;54941;52.220;104.306;2022-11-20T10:06:12;31.33;;;11.68;;
68140;SDS011;54941;52.220;104.306;2022-11-20T10:08:44;20.45;;;8.63;;
68140;SDS011;54941;52.220;104.306;2022-11-20T10:11:17;18.33;;;7.13;;
68140;SDS011;54941;52.220;104.306;2022-11-20T10:13:55;14.18;;;6.18;;
68140;SDS011;54941;52.220;104.306;2022-11-20T10:16:35;15.35;;;6.97;;
68140;SDS011;54941;52.220;104.306;2022-11-20T10:19:15;12.85;;;6.15;;
68140;SDS011;54941;52.220;104.306;2022-11-20T10:21:56;11.50;;;5.57;;
68140;SDS011;54941;52.220;104.306;2022-11-20T10:24:34;12.80;;;3.95;;
68140;SDS011;54941;52.220;104.306;2022-11-20T10:27:12;13.23;;;5.28;;
68140;SDS011;54941;52.220;104.306;2022-11-20T10:29:57;12.60;;;6.13;;
68140;SDS011;54941;52.220;104.306;2022-11-20T10:32:28;15.32;;;6.50;;
68140;SDS011;54941;52.220;104.306;2022-11-20T10:35:01;10.10;;;5.88;;
68140;SDS011;54941;52.220;104.306;2022-11-20T10:37:33;12.82;;;5.43;;
68140;SDS011;54941;52.220;104.306;2022-11-20T10:42:41;14.45;;;5.97;;
68140;SDS011;54941;52.220;104.306;2022-11-20T10:45:11;11.82;;;4.60;;
68140;SDS011;54941;52.220;104.306;2022-11-20T10:47:44;6.40;;;3.35;;
68140;SDS011;54941;52.220;104.306;2022-11-20T10:50:13;9.88;;;4.50;;
68140;SDS011;54941;52.220;104.306;2022-11-20T10:52:46;14.10;;;5.40;;
68140;SDS011;54941;52.220;104.306;2022-11-20T10:55:25;11.55;;;5.13;;
68140;SDS011;54941;52.220;104.306;2022-11-20T10:57:58;7.00;;;3.50;;
68140;SDS011;54941;52.220;104.306;2022-11-20T11:00:30;21.88;;;8.60;;
68140;SDS011;54941;52.220;104.306;2022-11-20T11:02:57;16.20;;;6.35;;
68140;SDS011;54941;52.220;104.306;2022-11-20T11:05:32;12.55;;;4.80;;
68140;SDS011;54941;52.220;104.306;2022-11-20T11:08:02;10.50;;;4.72;;
68140;SDS011;54941;52.220;104.306;2022-11-20T11:10:36;7.55;;;3.80;;
68140;SDS011;54941;52.220;104.306;2022-11-20T11:13:06;10.35;;;4.68;;
68140;SDS011;54941;52.220;104.306;2022-11-20T11:15:37;11.93;;;4.38;;
68140;SDS011;54941;52.220;104.306;2022-11-20T11:18:07;12.95;;;5.25;;
68140;SDS011;54941;52.220;104.306;2022-11-20T11:20:36;10.75;;;5.20;;
68140;SDS011;54941;52.220;104.306;2022-11-20T11:23:03;16.70;;;6.25;;
68140;SDS011;54941;52.220;104.306;2022-11-20T11:25:30;31.67;;;13.18;;
68140;SDS011;54941;52.220;104.306;2022-11-20T11:27:58;10.82;;;5.22;;
68140;SDS011;54941;52.220;104.306;2022-11-20T11:30:26;16.63;;;7.40;;
68140;SDS011;54941;52.220;104.306;2022-11-20T11:33:04;19.50;;;7.50;;
68140;SDS011;54941;52.220;104.306;2022-11-20T11:35:31;11.10;;;4.75;;
68140;SDS011;54941;52.220;104.306;2022-11-20T11:38:04;8.27;;;4.28;;
68140;SDS011;54941;52.220;104.306;2022-11-20T11:40:33;13.82;;;5.82;;
68140;SDS011;54941;52.220;104.306;2022-11-20T11:43:02;13.57;;;5.53;;
68140;SDS011;54941;52.220;104.306;2022-11-20T11:45:32;12.02;;;5.07;;
68140;SDS011;54941;52.220;104.306;2022-11-20T11:47:59;11.73;;;4.93;;
68140;SDS011;54941;52.220;104.306;2022-11-20T11:50:29;11.45;;;5.15;;
68140;SDS011;54941;52.220;104.306;2022-11-20T11:53:01;12.90;;;6.13;;
68140;SDS011;54941;52.220;104.306;2022-11-20T11:55:35;12.13;;;5.95;;
68140;SDS011;54941;52.220;104.306;2022-11-20T11:58:09;12.52;;;5.40;;
68140;SDS011;54941;52.220;104.306;2022-11-20T12:00:45;13.88;;;5.40;;
68140;SDS011;54941;52.220;104.306;2022-11-20T12:03:20;10.48;;;4.80;;
68140;SDS011;54941;52.220;104.306;2022-11-20T12:05:51;7.25;;;3.20;;
68140;SDS011;54941;52.220;104.306;2022-11-20T12:08:25;9.20;;;3.47;;
68140;SDS011;54941;52.220;104.306;2022-11-20T12:10:56;5.85;;;2.97;;
68140;SDS011;54941;52.220;104.306;2022-11-20T12:13:32;4.95;;;2.40;;
68140;SDS011;54941;52.220;104.306;2022-11-20T12:16:07;14.80;;;6.85;;
68140;SDS011;54941;52.220;104.306;2022-11-20T12:18:38;3.72;;;1.45;;
68140;SDS011;54941;52.220;104.306;2022-11-20T12:21:08;2.10;;;1.02;;
68140;SDS011;54941;52.220;104.306;2022-11-20T12:23:48;4.82;;;2.15;;
68140;SDS011;54941;52.220;104.306;2022-11-20T12:26:27;4.53;;;2.00;;
68140;SDS011;54941;52.220;104.306;2022-11-20T12:29:07;3.95;;;1.77;;
68140;SDS011;54941;52.220;104.306;2022-11-20T12:31:56;4.60;;;2.28;;
68140;SDS011;54941;52.220;104.306;2022-11-20T12:34:47;3.97;;;2.10;;
68140;SDS011;54941;52.220;104.306;2022-11-20T12:37:26;7.20;;;2.22;;
68140;SDS011;54941;52.220;104.306;2022-11-20T12:40:04;6.88;;;2.80;;
68140;SDS011;54941;52.220;104.306;2022-11-20T12:42:46;5.72;;;2.30;;
68140;SDS011;54941;52.220;104.306;2022-11-20T12:45:28;5.25;;;2.25;;
68140;SDS011;54941;52.220;104.306;2022-11-20T12:48:19;5.75;;;2.15;;
68140;SDS011;54941;52.220;104.306;2022-11-20T12:50:57;5.30;;;1.77;;
68140;SDS011;54941;52.220;104.306;2022-11-20T12:53:38;3.13;;;1.52;;
68140;SDS011;54941;52.220;104.306;2022-11-20T12:56:13;3.38;;;1.55;;
68140;SDS011;54941;52.220;104.306;2022-11-20T12:58:50;3.97;;;1.70;;
68140;SDS011;54941;52.220;104.306;2022-11-20T13:01:29;3.38;;;1.63;;
68140;SDS011;54941;52.220;104.306;2022-11-20T13:04:06;4.30;;;2.10;;
68140;SDS011;54941;52.220;104.306;2022-11-20T13:06:40;3.58;;;1.75;;
68140;SDS011;54941;52.220;104.306;2022-11-20T13:09:07;7.75;;;2.13;;
68140;SDS011;54941;52.220;104.306;2022-11-20T13:11:41;5.95;;;2.60;;
68140;SDS011;54941;52.220;104.306;2022-11-20T13:14:18;7.03;;;3.08;;
68140;SDS011;54941;52.220;104.306;2022-11-20T13:16:55;5.60;;;2.22;;
68140;SDS011;54941;52.220;104.306;2022-11-20T13:19:26;6.95;;;3.08;;
68140;SDS011;54941;52.220;104.306;2022-11-20T13:21:53;4.18;;;1.92;;
68140;SDS011;54941;52.220;104.306;2022-11-20T13:24:20;3.95;;;1.75;;
68140;SDS011;54941;52.220;104.306;2022-11-20T13:27:00;3.97;;;1.73;;
68140;SDS011;54941;52.220;104.306;2022-11-20T13:29:45;6.13;;;2.67;;
68140;SDS011;54941;52.220;104.306;2022-11-20T13:32:13;5.60;;;2.83;;
68140;SDS011;54941;52.220;104.306;2022-11-20T13:34:51;5.20;;;2.63;;
68140;SDS011;54941;52.220;104.306;2022-11-20T13:37:24;4.38;;;2.17;;
68140;SDS011;54941;52.220;104.306;2022-11-20T13:40:04;4.65;;;2.03;;
68140;SDS011;54941;52.220;104.306;2022-11-20T13:42:39;5.15;;;1.67;;
68140;SDS011;54941;52.220;104.306;2022-11-20T13:45:10;3.90;;;1.92;;
68140;SDS011;54941;52.220;104.306;2022-11-20T13:47:47;3.70;;;1.95;;
68140;SDS011;54941;52.220;104.306;2022-11-20T13:50:15;3.30;;;1.33;;
68140;SDS011;54941;52.220;104.306;2022-11-20T13:52:44;3.20;;;1.50;;
68140;SDS011;54941;52.220;104.306;2022-11-20T13:55:19;3.15;;;1.33;;
68140;SDS011;54941;52.220;104.306;2022-11-20T14:00:55;3.53;;;1.60;;
68140;SDS011;54941;52.220;104.306;2022-11-20T14:03:24;3.85;;;1.67;;
68140;SDS011;54941;52.220;104.306;2022-11-20T14:05:55;4.15;;;2.08;;
68140;SDS011;54941;52.220;104.306;2022-11-20T14:08:26;3.63;;;1.73;;
68140;SDS011;54941;52.220;104.306;2022-11-20T14:11:05;3.85;;;1.80;;
68140;SDS011;54941;52.220;104.306;2022-11-20T14:13:55;6.47;;;1.60;;
68140;SDS011;54941;52.220;104.306;2022-11-20T14:16:23;4.22;;;2.10;;
68140;SDS011;54941;52.220;104.306;2022-11-20T14:18:50;6.60;;;1.98;;
68140;SDS011;54941;52.220;104.306;2022-11-20T14:21:27;3.08;;;1.63;;
68140;SDS011;54941;52.220;104.306;2022-11-20T14:23:54;3.20;;;1.58;;
68140;SDS011;54941;52.220;104.306;2022-11-20T14:26:29;4.28;;;2.17;;
68140;SDS011;54941;52.220;104.306;2022-11-20T14:28:57;5.07;;;1.90;;